Time;durP1;ratioP1;P1;durP2;ratioP2;P2;SDS_P1;SDS_P2;PMS_P1;PMS_P2;Temp;Humidity;BMP_temperature;BMP_pressure;BME280_temperature;BME280_humidity;BME280_pressure;Samples;Min_cycle;Max_cycle;Signal;HPM_P1;HPM_P2
2021/01/29 00:01:34;;;;;;;8.57;6.35;;;7.70;80.40;;;;;;5046563;28;20040;-80
2021/01/29 00:04:00;;;;;;;9.65;6.60;;;7.70;80.40;;;;;;5031937;28;20025;-80
2021/01/29 00:06:26;;;;;;;8.50;6.20;;;7.70;80.40;;;;;;5050087;28;20036;-82
2021/01/29 00:08:51;;;;;;;7.95;5.40;;;7.70;80.40;;;;;;5036509;28;20044;-79
2021/01/29 00:11:17;;;;;;;8.85;6.50;;;7.70;80.40;;;;;;5015060;28;20025;-80
2021/01/29 00:13:43;;;;;;;8.38;6.00;;;7.70;80.40;;;;;;5036587;28;20042;-80
2021/01/29 00:16:08;;;;;;;9.25;6.40;;;7.70;80.40;;;;;;5012206;28;20025;-80
2021/01/29 00:18:35;;;;;;;8.25;5.80;;;7.70;80.40;;;;;;5027089;28;20040;-80
2021/01/29 00:21:01;;;;;;;7.95;5.40;;;7.70;80.50;;;;;;5036972;28;20125;-80
2021/01/29 00:23:27;;;;;;;9.52;6.18;;;7.70;80.50;;;;;;5051124;28;20029;-81
2021/01/29 00:25:54;;;;;;;9.18;6.00;;;7.70;80.50;;;;;;5036371;28;20032;-80
2021/01/29 00:28:21;;;;;;;8.00;5.88;;;7.70;80.50;;;;;;5037618;28;20033;-80
2021/01/29 00:30:50;;;;;;;7.60;5.18;;;7.70;80.50;;;;;;5032202;28;20424;-80
2021/01/29 00:33:18;;;;;;;8.43;6.03;;;7.70;80.50;;;;;;5052075;28;20435;-80
2021/01/29 00:35:43;;;;;;;8.65;6.25;;;7.70;80.50;;;;;;5036653;28;20078;-80
2021/01/29 00:38:11;;;;;;;9.27;6.28;;;7.70;80.50;;;;;;5032466;28;20036;-79
2021/01/29 00:40:37;;;;;;;9.05;5.93;;;7.70;80.50;;;;;;5038059;28;20059;-80
2021/01/29 00:43:04;;;;;;;8.65;5.95;;;7.70;80.50;;;;;;5057763;28;20500;-80
2021/01/29 00:45:34;;;;;;;8.80;6.18;;;7.70;80.50;;;;;;5052616;28;20369;-80
2021/01/29 00:48:00;;;;;;;8.65;5.97;;;7.70;80.50;;;;;;5037352;28;20111;-80
2021/01/29 00:50:26;;;;;;;10.90;7.10;;;7.70;80.50;;;;;;5024854;28;20453;-79
2021/01/29 00:52:53;;;;;;;10.35;7.28;;;7.70;80.50;;;;;;5023863;28;20028;-80
2021/01/29 00:55:20;;;;;;;9.70;6.30;;;7.70;80.50;;;;;;5040631;28;20025;-80
2021/01/29 00:57:54;;;;;;;9.73;6.88;;;7.70;80.50;;;;;;5057045;28;20024;-80
2021/01/29 01:00:32;;;;;;;8.98;6.40;;;7.70;80.50;;;;;;5058674;28;20045;-80
2021/01/29 01:03:01;;;;;;;9.15;6.43;;;7.70;80.50;;;;;;5052960;28;20021;-80
2021/01/29 01:05:28;;;;;;;9.32;6.32;;;7.70;80.50;;;;;;5050500;28;20131;-80
2021/01/29 01:07:55;;;;;;;10.07;6.57;;;7.70;80.50;;;;;;5006139;28;20526;-80
2021/01/29 01:10:25;;;;;;;9.15;5.78;;;7.60;80.60;;;;;;5050783;28;20392;-80
2021/01/29 01:13:23;;;;;;;9.90;6.65;;;7.70;80.60;;;;;;5058821;28;20033;-80
2021/01/29 01:16:09;;;;;;;9.75;6.50;;;7.70;80.50;;;;;;5000546;28;20095;-81
2021/01/29 01:18:35;;;;;;;9.77;6.47;;;7.70;80.50;;;;;;5038450;28;20037;-81
2021/01/29 01:21:14;;;;;;;10.63;6.53;;;7.60;80.50;;;;;;5030627;28;20041;-80
2021/01/29 01:23:43;;;;;;;9.95;6.50;;;7.70;80.50;;;;;;5034564;28;20094;-80
2021/01/29 01:26:09;;;;;;;10.82;6.97;;;7.60;80.50;;;;;;5007488;28;20025;-80
2021/01/29 01:29:12;;;;;;;9.60;6.35;;;7.60;80.50;;;;;;4988142;28;20030;-80
2021/01/29 01:31:39;;;;;;;10.80;7.05;;;7.60;80.40;;;;;;4977513;28;20035;-80
2021/01/29 01:34:40;;;;;;;9.57;6.25;;;7.60;80.50;;;;;;4991161;28;20042;-80
2021/01/29 01:37:15;;;;;;;9.85;6.88;;;7.60;80.50;;;;;;5014466;28;20072;-80
2021/01/29 01:39:59;;;;;;;11.27;7.15;;;7.60;80.50;;;;;;5039191;28;20060;-80
2021/01/29 01:42:25;;;;;;;10.82;6.97;;;7.60;80.50;;;;;;5025693;28;20037;-80
2021/01/29 01:44:51;;;;;;;11.05;7.60;;;7.60;80.60;;;;;;5020466;28;20036;-80
2021/01/29 01:47:25;;;;;;;12.10;7.82;;;7.60;80.60;;;;;;5038179;28;20025;-80
2021/01/29 01:50:27;;;;;;;10.52;7.32;;;7.60;80.60;;;;;;5048108;28;20635;-80
2021/01/29 01:52:55;;;;;;;10.63;7.00;;;7.60;80.60;;;;;;5037606;28;20115;-80
2021/01/29 01:55:31;;;;;;;11.00;8.15;;;7.60;80.50;;;;;;5055090;28;20028;-80
2021/01/29 01:58:11;;;;;;;10.75;6.88;;;7.60;80.60;;;;;;5056388;28;20452;-80
2021/01/29 02:01:15;;;;;;;10.50;6.68;;;7.60;80.50;;;;;;5037253;28;20040;-80
2021/01/29 02:04:05;;;;;;;10.95;6.90;;;7.60;80.40;;;;;;5037483;28;20474;-80
2021/01/29 02:06:55;;;;;;;;;;;7.60;80.60;;;;;;5044690;28;20078;-80
2021/01/29 02:09:42;;;;;;;10.27;6.22;;;7.60;80.50;;;;;;5067776;28;19966;-80
2021/01/29 02:12:11;;;;;;;10.80;6.78;;;7.60;80.30;;;;;;5041643;28;20435;-80
2021/01/29 02:14:50;;;;;;;10.73;7.40;;;7.60;80.50;;;;;;5034526;28;20033;-80
2021/01/29 02:18:10;;;;;;;11.18;7.13;;;7.60;80.60;;;;;;5033469;28;20059;-79
2021/01/29 02:21:25;;;;;;;10.82;7.28;;;7.60;80.60;;;;;;5060160;28;20373;-80
2021/01/29 02:24:35;;;;;;;11.38;7.15;;;7.60;80.60;;;;;;5049132;28;20032;-80
2021/01/29 02:27:51;;;;;;;9.07;6.18;;;7.60;80.70;;;;;;5036471;28;20025;-80
2021/01/29 02:30:48;;;;;;;10.30;7.20;;;7.60;80.70;;;;;;5042102;28;20032;-81
2021/01/29 02:33:38;;;;;;;9.98;6.82;;;7.60;80.60;;;;;;5035573;28;20032;-80
2021/01/29 02:36:42;;;;;;;11.40;7.45;;;7.60;80.70;;;;;;5054359;28;20562;-80
2021/01/29 02:39:51;;;;;;;11.57;7.63;;;7.60;80.80;;;;;;5054122;28;20501;-80
2021/01/29 02:42:19;;;;;;;10.55;7.03;;;7.60;80.80;;;;;;5038873;28;20086;-80
2021/01/29 02:45:27;;;;;;;12.05;8.00;;;7.60;81.30;;;;;;5043160;28;20491;-80
2021/01/29 02:48:26;;;;;;;10.95;7.43;;;7.60;80.90;;;;;;5032927;28;20029;-80
2021/01/29 02:51:51;;;;;;;10.05;6.55;;;7.60;80.70;;;;;;5017878;28;20090;-80
2021/01/29 02:55:24;;;;;;;10.35;6.97;;;7.60;80.90;;;;;;4953671;28;20098;-80
2021/01/29 02:58:22;;;;;;;9.90;6.78;;;7.60;80.80;;;;;;5050445;28;20028;-80
2021/01/29 03:01:37;;;;;;;12.07;7.95;;;7.60;80.60;;;;;;5067620;28;20040;-80
2021/01/29 03:04:27;;;;;;;10.15;7.53;;;7.60;80.80;;;;;;5053131;28;20461;-79
2021/01/29 03:07:23;;;;;;;11.35;7.30;;;7.60;80.70;;;;;;5021692;28;20170;-80
2021/01/29 03:10:22;;;;;;;11.20;7.13;;;7.60;80.80;;;;;;5047552;28;20167;-80
2021/01/29 03:13:24;;;;;;;9.85;7.05;;;7.60;80.70;;;;;;5057262;28;20081;-80
2021/01/29 03:16:27;;;;;;;11.18;7.22;;;7.60;80.70;;;;;;5028486;28;20032;-80
2021/01/29 03:19:28;;;;;;;10.43;7.35;;;7.70;80.70;;;;;;5042033;28;20032;-80
2021/01/29 03:22:20;;;;;;;9.95;6.80;;;7.60;80.70;;;;;;5072722;28;20460;-80
2021/01/29 03:25:28;;;;;;;10.48;6.85;;;7.70;80.70;;;;;;5057586;28;20036;-80
2021/01/29 03:28:21;;;;;;;10.68;7.28;;;7.70;80.70;;;;;;5065247;28;20402;-80
2021/01/29 03:31:12;;;;;;;10.60;6.97;;;7.70;80.70;;;;;;5049363;28;20511;-80
2021/01/29 03:34:11;;;;;;;11.55;7.28;;;7.70;80.70;;;;;;5061464;28;20067;-80
2021/01/29 03:37:03;;;;;;;9.50;6.82;;;7.70;80.80;;;;;;5065727;28;20035;-79
2021/01/29 03:39:48;;;;;;;9.70;6.53;;;7.70;80.70;;;;;;5030828;28;20560;-80
2021/01/29 03:43:10;;;;;;;11.35;7.07;;;7.70;80.70;;;;;;5017619;28;20044;-80
2021/01/29 03:46:24;;;;;;;10.50;6.68;;;7.70;80.90;;;;;;5043288;28;20113;-80
2021/01/29 03:49:21;;;;;;;10.00;6.82;;;7.70;80.80;;;;;;5036492;28;20036;-80
2021/01/29 03:52:28;;;;;;;11.05;6.57;;;7.70;80.70;;;;;;5031384;28;20087;-81
2021/01/29 03:55:43;;;;;;;10.75;6.90;;;7.70;80.90;;;;;;5036853;28;20036;-81
2021/01/29 03:58:49;;;;;;;9.88;6.38;;;7.70;80.90;;;;;;4966531;28;20142;-81
2021/01/29 04:01:53;;;;;;;10.55;6.72;;;7.80;80.80;;;;;;4955399;28;20078;-80
2021/01/29 04:04:58;;;;;;;9.50;6.30;;;7.80;80.90;;;;;;5023131;28;20044;-80
2021/01/29 04:07:47;;;;;;;10.32;6.57;;;7.80;80.90;;;;;;5026758;28;20036;-80
2021/01/29 04:10:44;;;;;;;9.82;6.47;;;7.80;80.90;;;;;;5030741;28;20119;-80
2021/01/29 04:13:41;;;;;;;8.15;5.57;;;7.80;80.80;;;;;;5043879;28;20060;-80
2021/01/29 04:16:21;;;;;;;10.23;6.75;;;7.80;80.90;;;;;;5014997;28;20030;-80
2021/01/29 04:19:00;;;;;;;8.98;6.28;;;7.80;80.80;;;;;;5034900;28;20381;-80
2021/01/29 04:21:27;;;;;;;9.77;6.15;;;7.80;80.80;;;;;;5016800;28;20091;-80
2021/01/29 04:24:00;;;;;;;9.30;6.32;;;7.90;80.80;;;;;;5036629;28;20136;-80
2021/01/29 04:26:33;;;;;;;8.65;6.07;;;7.90;80.90;;;;;;5021840;28;20025;-80
2021/01/29 04:29:08;;;;;;;9.27;6.45;;;7.90;80.80;;;;;;5021143;28;20029;-80
2021/01/29 04:31:35;;;;;;;10.45;6.53;;;7.90;80.80;;;;;;5015881;28;20087;-80
2021/01/29 04:34:21;;;;;;;9.50;6.43;;;7.90;80.70;;;;;;5009082;28;20029;-80
2021/01/29 04:36:49;;;;;;;8.35;6.13;;;7.90;80.80;;;;;;5020887;28;20106;-80
2021/01/29 04:39:31;;;;;;;9.02;6.07;;;7.90;80.70;;;;;;5016060;28;20048;-80
2021/01/29 04:42:04;;;;;;;8.88;6.05;;;7.90;80.80;;;;;;5038863;28;20037;-80
2021/01/29 04:44:45;;;;;;;9.45;6.10;;;8.00;80.80;;;;;;5040929;28;20052;-80
2021/01/29 04:47:24;;;;;;;8.75;6.15;;;8.00;80.80;;;;;;5052091;28;20021;-80
2021/01/29 04:50:23;;;;;;;8.50;5.78;;;8.00;80.70;;;;;;5023070;28;20032;-81
2021/01/29 04:52:48;;;;;;;8.63;6.13;;;8.00;80.90;;;;;;5022114;28;20091;-80
2021/01/29 04:55:27;;;;;;;9.68;5.88;;;8.00;80.70;;;;;;5057588;28;20028;-80
2021/01/29 04:57:58;;;;;;;7.78;5.40;;;8.00;80.70;;;;;;5055584;28;20024;-80
2021/01/29 05:01:07;;;;;;;8.30;5.45;;;8.00;80.70;;;;;;5063935;28;20036;-80
2021/01/29 05:04:19;;;;;;;8.23;5.47;;;8.00;80.70;;;;;;4978625;28;20031;-80
2021/01/29 05:07:44;;;;;;;7.80;5.25;;;8.10;80.70;;;;;;5048110;28;20108;-81
2021/01/29 05:11:09;;;;;;;7.60;5.28;;;8.00;80.70;;;;;;5039990;28;20024;-81
2021/01/29 05:13:49;;;;;;;8.27;5.75;;;8.00;80.60;;;;;;5052907;28;20497;-79
2021/01/29 05:16:46;;;;;;;7.28;5.20;;;8.10;80.60;;;;;;5033617;28;20056;-80
2021/01/29 05:19:31;;;;;;;7.30;5.18;;;8.10;80.70;;;;;;5054275;28;20469;-81
2021/01/29 05:22:06;;;;;;;6.95;4.68;;;8.10;80.70;;;;;;5062507;28;20040;-81
2021/01/29 05:25:02;;;;;;;7.25;5.00;;;8.10;80.70;;;;;;5048364;28;20368;-80
2021/01/29 05:27:47;;;;;;;6.70;4.70;;;8.10;80.70;;;;;;5061379;28;20024;-80
2021/01/29 05:30:50;;;;;;;6.15;4.32;;;8.10;80.70;;;;;;5046036;28;20037;-80
2021/01/29 05:33:16;;;;;;;6.90;4.68;;;8.10;80.70;;;;;;5037182;28;20059;-80
2021/01/29 05:35:53;;;;;;;7.07;4.82;;;8.10;80.50;;;;;;5050529;28;20389;-80
2021/01/29 05:38:41;;;;;;;8.48;5.28;;;8.10;80.60;;;;;;5058311;28;20503;-80
2021/01/29 05:41:34;;;;;;;6.35;4.43;;;8.20;80.80;;;;;;5049439;28;20039;-80
2021/01/29 05:44:13;;;;;;;7.07;4.85;;;8.20;80.70;;;;;;5049301;28;20119;-80
2021/01/29 05:46:57;;;;;;;6.60;4.43;;;8.20;80.70;;;;;;5045655;28;20123;-80
2021/01/29 05:49:26;;;;;;;6.93;4.77;;;8.20;80.70;;;;;;5053915;28;20037;-80
2021/01/29 05:52:30;;;;;;;6.20;4.78;;;8.20;80.60;;;;;;5040071;28;20024;-79
2021/01/29 05:55:27;;;;;;;6.15;4.40;;;8.30;80.80;;;;;;5026674;28;20127;-80
2021/01/29 05:58:20;;;;;;;6.32;4.53;;;8.20;80.60;;;;;;5072118;28;20032;-79
2021/01/29 06:01:01;;;;;;;5.88;4.43;;;8.30;80.60;;;;;;5055902;28;20480;-80
2021/01/29 06:03:45;;;;;;;6.22;4.40;;;8.20;80.50;;;;;;5020151;28;20085;-79
2021/01/29 06:06:42;;;;;;;5.68;3.90;;;8.30;80.70;;;;;;5051542;28;20025;-80
2021/01/29 06:09:46;;;;;;;5.82;3.85;;;8.30;80.80;;;;;;5035876;28;20017;-80
2021/01/29 06:12:44;;;;;;;5.80;4.07;;;8.30;80.70;;;;;;5021097;28;20044;-80
2021/01/29 06:15:40;;;;;;;5.18;3.85;;;8.30;80.70;;;;;;5018945;28;20033;-80
2021/01/29 06:18:22;;;;;;;5.63;3.80;;;8.30;80.70;;;;;;5052473;28;20108;-82
2021/01/29 06:21:15;;;;;;;5.72;3.83;;;8.40;80.70;;;;;;5031571;28;20033;-80
2021/01/29 06:24:26;;;;;;;4.65;3.38;;;8.40;80.70;;;;;;5044985;28;20029;-79
2021/01/29 06:27:29;;;;;;;4.32;3.13;;;8.40;80.80;;;;;;5070882;28;20115;-79
2021/01/29 06:30:07;;;;;;;4.72;3.13;;;8.40;80.80;;;;;;5045702;28;20133;-80
2021/01/29 06:32:57;;;;;;;4.63;3.40;;;8.40;80.70;;;;;;5044411;28;20032;-80
2021/01/29 06:35:33;;;;;;;5.53;3.42;;;8.40;80.80;;;;;;5035961;28;20078;-79
2021/01/29 06:38:49;;;;;;;4.70;3.30;;;8.40;80.70;;;;;;5042602;28;20031;-82
2021/01/29 06:41:21;;;;;;;4.72;2.97;;;8.50;80.90;;;;;;4991177;28;20041;-79
2021/01/29 06:44:03;;;;;;;4.90;3.58;;;8.50;80.70;;;;;;5040174;28;20103;-78
2021/01/29 06:47:09;;;;;;;5.15;3.75;;;8.50;80.80;;;;;;5034395;28;20432;-77
2021/01/29 06:49:44;;;;;;;4.95;3.40;;;8.50;80.80;;;;;;5051224;28;20512;-79
2021/01/29 06:52:43;;;;;;;4.68;3.15;;;8.60;80.70;;;;;;5045161;28;20161;-80
2021/01/29 06:55:34;;;;;;;5.32;3.72;;;8.60;81.40;;;;;;5039412;28;20017;-80
2021/01/29 06:58:15;;;;;;;4.60;3.15;;;8.60;80.60;;;;;;5026224;28;20033;-80
2021/01/29 07:00:49;;;;;;;4.38;2.83;;;8.70;80.70;;;;;;5037314;28;20044;-81
2021/01/29 07:03:34;;;;;;;4.43;3.20;;;8.70;80.60;;;;;;5042631;28;20099;-79
2021/01/29 07:06:15;;;;;;;3.88;2.63;;;8.70;80.70;;;;;;5040417;28;20075;-80
2021/01/29 07:09:18;;;;;;;3.95;2.95;;;8.70;80.50;;;;;;5030755;28;20108;-80
2021/01/29 07:12:04;;;;;;;5.13;2.90;;;8.70;80.70;;;;;;5039652;28;20397;-79
2021/01/29 07:14:54;;;;;;;3.72;2.55;;;8.80;80.70;;;;;;5033873;28;20029;-80
2021/01/29 07:17:44;;;;;;;3.83;2.90;;;8.80;80.60;;;;;;5057513;28;20075;-80
2021/01/29 07:20:36;;;;;;;4.32;2.75;;;8.80;80.50;;;;;;5039575;28;20121;-80
2021/01/29 07:23:17;;;;;;;3.58;2.58;;;8.80;80.60;;;;;;5037139;28;20392;-83
2021/01/29 07:26:11;;;;;;;3.78;2.80;;;8.90;80.60;;;;;;5021706;28;20020;-79
2021/01/29 07:29:03;;;;;;;3.55;2.60;;;8.90;80.70;;;;;;5052391;28;20465;-79
2021/01/29 07:31:56;;;;;;;3.13;2.38;;;8.90;80.60;;;;;;5047106;28;20032;-80
2021/01/29 07:34:43;;;;;;;4.05;2.75;;;9.00;80.60;;;;;;5049741;28;20170;-81
2021/01/29 07:37:36;;;;;;;3.25;2.45;;;9.00;80.60;;;;;;5038591;28;20032;-79
2021/01/29 07:40:46;;;;;;;3.10;2.53;;;9.00;80.60;;;;;;5027751;28;20049;-79
2021/01/29 07:43:24;;;;;;;3.67;2.33;;;9.00;80.70;;;;;;4931720;29;20040;-80
2021/01/29 07:46:05;;;;;;;4.15;2.42;;;9.10;80.50;;;;;;4926927;29;20032;-81
2021/01/29 07:48:42;;;;;;;2.83;2.17;;;9.10;80.60;;;;;;4998077;28;20039;-79
2021/01/29 07:51:11;;;;;;;4.32;2.70;;;9.10;80.50;;;;;;5029035;28;20036;-80
2021/01/29 07:53:36;;;;;;;3.95;2.53;;;9.10;80.50;;;;;;5041255;28;20029;-82
2021/01/29 07:56:44;;;;;;;2.90;2.20;;;9.20;80.60;;;;;;5025172;28;20033;-79
2021/01/29 07:59:29;;;;;;;3.03;2.25;;;9.20;80.70;;;;;;5026210;28;20083;-79
2021/01/29 08:02:20;;;;;;;2.73;2.27;;;9.20;80.50;;;;;;5022217;28;20477;-80
2021/01/29 08:05:12;;;;;;;2.75;2.17;;;9.20;80.50;;;;;;5048006;28;20063;-78
2021/01/29 08:07:45;;;;;;;2.88;2.00;;;9.20;80.50;;;;;;5014570;28;20034;-80
2021/01/29 08:10:31;;;;;;;3.47;2.40;;;9.20;80.40;;;;;;5020637;28;20033;-78
2021/01/29 08:13:23;;;;;;;2.97;2.10;;;9.30;80.60;;;;;;5039084;28;20060;-76
2021/01/29 08:16:01;;;;;;;2.45;2.15;;;9.30;80.50;;;;;;5044643;28;20061;-76
2021/01/29 08:18:55;;;;;;;2.95;2.20;;;9.30;80.50;;;;;;5014242;28;20057;-77
2021/01/29 08:21:47;;;;;;;3.55;2.00;;;9.30;80.50;;;;;;5033988;28;20050;-75
2021/01/29 08:24:45;;;;;;;2.47;2.00;;;9.40;80.60;;;;;;5014390;28;20359;-76
2021/01/29 08:27:49;;;;;;;2.33;2.05;;;9.40;80.60;;;;;;5018174;28;20032;-76
2021/01/29 08:31:07;;;;;;;2.15;1.77;;;9.40;80.50;;;;;;5022898;28;20091;-75
2021/01/29 08:34:27;;;;;;;2.22;2.00;;;9.50;80.60;;;;;;5022911;28;20067;-77
2021/01/29 08:37:10;;;;;;;4.95;2.25;;;9.40;80.60;;;;;;4931193;29;20039;-76
2021/01/29 08:40:19;;;;;;;2.30;2.10;;;9.50;80.40;;;;;;5029435;28;20549;-76
2021/01/29 08:42:59;;;;;;;2.88;1.88;;;9.50;80.60;;;;;;5002608;28;20559;-77
2021/01/29 08:45:51;;;;;;;2.13;1.90;;;9.50;80.50;;;;;;5045082;28;20032;-79
2021/01/29 08:48:31;;;;;;;3.10;1.90;;;9.50;80.60;;;;;;5036447;28;20044;-80
2021/01/29 08:51:06;;;;;;;2.63;1.95;;;9.50;80.60;;;;;;5036586;28;20497;-79
2021/01/29 08:53:53;;;;;;;3.13;2.15;;;9.60;80.60;;;;;;5050231;28;20100;-78
2021/01/29 08:56:53;;;;;;;2.90;2.10;;;9.60;80.60;;;;;;5038628;28;20029;-78
2021/01/29 08:59:23;;;;;;;3.28;1.85;;;9.60;80.60;;;;;;5041897;28;20476;-78
2021/01/29 09:01:52;;;;;;;3.88;1.90;;;9.70;80.50;;;;;;5038493;28;20031;-78
2021/01/29 09:04:27;;;;;;;4.13;2.10;;;9.70;80.50;;;;;;5034595;28;20029;-80
2021/01/29 09:06:56;;;;;;;4.75;2.50;;;9.70;80.60;;;;;;5048331;28;20039;-79
2021/01/29 09:09:27;;;;;;;3.03;1.98;;;9.70;80.50;;;;;;5038948;28;20021;-80
2021/01/29 09:11:56;;;;;;;4.97;1.98;;;9.80;80.50;;;;;;5031538;28;20057;-79
2021/01/29 09:14:31;;;;;;;4.75;2.05;;;9.80;80.50;;;;;;5048841;28;20107;-78
2021/01/29 09:17:05;;;;;;;4.18;1.95;;;9.80;80.60;;;;;;5046227;28;20033;-81
2021/01/29 09:19:35;;;;;;;3.60;2.03;;;9.80;80.60;;;;;;5031658;28;20075;-77
2021/01/29 09:22:12;;;;;;;4.57;1.85;;;9.90;80.50;;;;;;5027046;28;20295;-79
2021/01/29 09:25:02;;;;;;;5.15;2.33;;;9.90;80.60;;;;;;5045593;28;20039;-77
2021/01/29 09:27:41;;;;;;;4.88;2.00;;;9.90;80.60;;;;;;5030299;28;20491;-78
2021/01/29 09:30:40;;;;;;;5.25;2.55;;;9.90;80.60;;;;;;5032349;28;20029;-81
2021/01/29 09:33:22;;;;;;;6.53;2.20;;;9.90;80.70;;;;;;5031620;28;20048;-76
2021/01/29 09:36:03;;;;;;;5.53;2.10;;;9.90;80.50;;;;;;5033854;28;20029;-77
2021/01/29 09:38:37;;;;;;;5.13;2.17;;;10.00;80.60;;;;;;5048127;28;20504;-76
2021/01/29 09:41:17;;;;;;;4.43;2.20;;;10.00;80.50;;;;;;5030677;28;20028;-78
2021/01/29 09:43:54;;;;;;;5.13;2.53;;;10.00;80.60;;;;;;5061892;28;20033;-77
2021/01/29 09:46:34;;;;;;;4.82;2.10;;;10.00;80.50;;;;;;5061095;28;20041;-77
2021/01/29 09:49:08;;;;;;;4.63;2.25;;;10.00;80.60;;;;;;5045099;28;20032;-78
2021/01/29 09:51:41;;;;;;;5.35;2.22;;;10.00;80.50;;;;;;5043060;28;20032;-79
2021/01/29 09:54:34;;;;;;;5.43;2.63;;;10.10;80.50;;;;;;5041353;28;20123;-77
2021/01/29 09:57:09;;;;;;;5.55;2.20;;;10.10;80.60;;;;;;5036694;28;20060;-79
2021/01/29 09:59:58;;;;;;;4.55;2.17;;;10.10;80.50;;;;;;5040399;28;20051;-75
2021/01/29 10:02:52;;;;;;;4.70;1.85;;;10.10;80.60;;;;;;5047934;28;20428;-75
2021/01/29 10:05:24;;;;;;;5.35;2.03;;;10.10;80.60;;;;;;5043309;28;20058;-76
2021/01/29 10:08:05;;;;;;;7.45;2.33;;;10.20;80.50;;;;;;5041930;28;20462;-76
2021/01/29 10:10:54;;;;;;;8.15;2.25;;;10.20;80.60;;;;;;5037540;28;20078;-78
2021/01/29 10:13:28;;;;;;;7.22;2.55;;;10.20;80.50;;;;;;5059977;28;20031;-78
2021/01/29 10:16:17;;;;;;;4.88;2.00;;;10.20;80.60;;;;;;5045398;28;20451;-78
2021/01/29 10:19:01;;;;;;;7.38;2.30;;;10.20;80.60;;;;;;5031258;28;20465;-75
2021/01/29 10:21:57;;;;;;;5.28;2.00;;;10.20;80.50;;;;;;5037988;28;20485;-75
2021/01/29 10:24:51;;;;;;;5.20;2.10;;;10.20;80.60;;;;;;5061847;28;20500;-76
2021/01/29 10:27:33;;;;;;;7.00;1.98;;;10.20;80.60;;;;;;5035299;28;20469;-75
2021/01/29 10:30:25;;;;;;;3.85;1.98;;;10.30;80.60;;;;;;5038971;28;20542;-77
2021/01/29 10:33:12;;;;;;;8.25;2.47;;;10.30;80.70;;;;;;5042811;28;20116;-76
2021/01/29 10:35:45;;;;;;;5.75;2.38;;;10.30;80.60;;;;;;5035574;28;20021;-76
2021/01/29 10:38:19;;;;;;;8.10;2.28;;;10.30;80.50;;;;;;5054444;28;20028;-78
2021/01/29 10:41:12;;;;;;;7.70;2.20;;;10.30;80.70;;;;;;5037167;28;20032;-78
2021/01/29 10:43:55;;;;;;;4.75;2.20;;;10.30;80.50;;;;;;5038662;28;20041;-77
2021/01/29 10:46:52;;;;;;;6.78;2.20;;;10.30;80.50;;;;;;5038400;28;20037;-78
2021/01/29 10:49:21;;;;;;;5.45;2.53;;;10.30;80.60;;;;;;5043890;28;20028;-78
2021/01/29 10:51:55;;;;;;;8.30;2.45;;;10.30;80.40;;;;;;5039749;28;20469;-77
2021/01/29 10:54:33;;;;;;;7.13;1.90;;;10.40;80.50;;;;;;5038739;28;20538;-77
2021/01/29 10:57:17;;;;;;;7.47;2.17;;;10.40;80.50;;;;;;5025163;28;20036;-78
2021/01/29 10:59:53;;;;;;;7.53;2.10;;;10.40;80.60;;;;;;5063206;28;20033;-78
2021/01/29 11:02:29;;;;;;;5.20;2.10;;;10.40;80.50;;;;;;5036362;28;20476;-78
2021/01/29 11:05:10;;;;;;;7.40;2.38;;;10.50;80.50;;;;;;5035799;28;20495;-79
2021/01/29 11:07:47;;;;;;;6.30;1.90;;;10.50;80.60;;;;;;5055357;28;20059;-76
2021/01/29 11:10:22;;;;;;;6.30;2.15;;;10.50;80.50;;;;;;5029647;28;20491;-75
2021/01/29 11:13:26;;;;;;;5.05;1.83;;;10.50;80.50;;;;;;5036469;28;20119;-75
2021/01/29 11:16:01;;;;;;;6.28;2.08;;;10.50;80.50;;;;;;5025092;28;20045;-78
2021/01/29 11:18:34;;;;;;;8.43;2.78;;;10.50;80.40;;;;;;5041790;28;20025;-77
2021/01/29 11:21:05;;;;;;;7.82;2.03;;;10.60;80.50;;;;;;5029218;28;20044;-76
2021/01/29 11:24:00;;;;;;;5.78;2.28;;;10.60;80.40;;;;;;5027067;28;20112;-76
2021/01/29 11:26:34;;;;;;;5.35;1.98;;;10.60;80.50;;;;;;5054552;28;20071;-76
2021/01/29 11:29:19;;;;;;;5.93;1.83;;;10.60;80.40;;;;;;5039779;28;20033;-77
2021/01/29 11:32:21;;;;;;;7.20;2.33;;;10.60;80.50;;;;;;5042046;28;20039;-77
2021/01/29 11:35:01;;;;;;;5.32;1.77;;;10.60;80.40;;;;;;5058575;28;20052;-77
2021/01/29 11:37:36;;;;;;;7.93;2.22;;;10.70;80.40;;;;;;5026467;28;20357;-76
2021/01/29 11:40:22;;;;;;;4.25;1.70;;;10.70;80.40;;;;;;5058671;28;20060;-77
2021/01/29 11:43:01;;;;;;;5.43;2.17;;;10.70;80.50;;;;;;5030667;28;20075;-77
2021/01/29 11:45:31;;;;;;;7.25;2.33;;;10.80;80.40;;;;;;5047650;28;20799;-78
2021/01/29 11:48:33;;;;;;;5.53;1.80;;;10.80;80.70;;;;;;5052762;28;20074;-77
2021/01/29 11:51:05;;;;;;;5.65;2.28;;;10.80;80.40;;;;;;5054662;28;20224;-78
2021/01/29 11:53:43;;;;;;;4.32;1.70;;;10.80;80.20;;;;;;5026503;28;20028;-76
2021/01/29 11:56:50;;;;;;;4.72;1.63;;;10.80;80.30;;;;;;5046827;28;20029;-78
2021/01/29 11:59:48;;;;;;;5.95;2.15;;;10.80;80.40;;;;;;5000928;28;20477;-79
2021/01/29 12:02:24;;;;;;;8.30;2.42;;;10.80;80.30;;;;;;5013329;28;20049;-77
2021/01/29 12:05:18;;;;;;;4.82;1.85;;;10.90;80.30;;;;;;5042522;28;20028;-77
2021/01/29 12:07:56;;;;;;;6.03;2.28;;;10.90;80.30;;;;;;5037951;28;20049;-77
2021/01/29 12:10:28;;;;;;;4.32;2.05;;;10.90;80.30;;;;;;5054328;28;20025;-77
2021/01/29 12:13:33;;;;;;;4.07;1.52;;;11.00;80.20;;;;;;5022938;28;20037;-78
2021/01/29 12:16:02;;;;;;;4.38;1.63;;;11.00;80.40;;;;;;5012406;28;21803;-77
2021/01/29 12:18:32;;;;;;;4.57;1.85;;;11.00;80.10;;;;;;5027817;28;20116;-79
2021/01/29 12:21:18;;;;;;;6.05;2.10;;;11.00;80.20;;;;;;5037471;28;20378;-80
2021/01/29 12:23:50;;;;;;;6.95;2.03;;;11.00;80.30;;;;;;5027479;28;20017;-79
2021/01/29 12:26:44;;;;;;;4.43;1.63;;;11.00;80.10;;;;;;5033622;28;20040;-79
2021/01/29 12:29:20;;;;;;;6.07;1.80;;;11.10;80.30;;;;;;5047792;28;20036;-80
2021/01/29 12:32:21;;;;;;;5.35;1.90;;;11.10;80.10;;;;;;5059129;28;20028;-79
2021/01/29 12:35:01;;;;;;;7.93;1.92;;;11.10;80.30;;;;;;5033633;28;20021;-79
2021/01/29 12:37:31;;;;;;;3.90;1.83;;;11.10;80.00;;;;;;5060560;28;20523;-79
2021/01/29 12:40:04;;;;;;;6.00;2.33;;;11.10;80.10;;;;;;5048052;28;20405;-79
2021/01/29 12:42:41;;;;;;;4.97;1.90;;;11.20;80.10;;;;;;5048631;28;20071;-78
2021/01/29 12:45:33;;;;;;;5.82;2.35;;;11.20;80.10;;;;;;5039724;28;20033;-78
2021/01/29 12:48:15;;;;;;;4.90;2.00;;;11.20;80.20;;;;;;5036462;28;20020;-78
2021/01/29 12:51:27;;;;;;;6.20;1.90;;;11.20;80.10;;;;;;5048775;28;20051;-78
2021/01/29 12:54:14;;;;;;;6.85;2.00;;;11.20;80.20;;;;;;5000895;28;20040;-79
2021/01/29 12:56:40;;;;;;;6.28;2.25;;;11.30;80.10;;;;;;4984359;28;20037;-78
2021/01/29 12:59:10;;;;;;;2.90;1.65;;;11.30;80.00;;;;;;5022770;28;20482;-78
2021/01/29 13:01:36;;;;;;;7.18;2.10;;;11.30;80.10;;;;;;5039353;28;20436;-79
2021/01/29 13:04:10;;;;;;;5.53;2.00;;;11.30;80.00;;;;;;5040279;28;20108;-77
2021/01/29 13:06:38;;;;;;;3.10;1.63;;;11.30;80.00;;;;;;5036706;28;20028;-80
2021/01/29 13:09:23;;;;;;;5.18;2.03;;;11.30;80.00;;;;;;5045618;28;20524;-78
2021/01/29 13:12:17;;;;;;;3.40;1.77;;;11.30;80.00;;;;;;5060863;28;20109;-78
2021/01/29 13:14:54;;;;;;;3.97;1.70;;;11.40;80.00;;;;;;5038266;28;20060;-76
2021/01/29 13:17:33;;;;;;;5.43;1.70;;;11.40;79.90;;;;;;5030092;28;20514;-76
2021/01/29 13:20:10;;;;;;;5.18;1.95;;;11.40;80.00;;;;;;5057607;28;20108;-76
2021/01/29 13:22:41;;;;;;;5.25;1.75;;;11.40;80.00;;;;;;5055063;28;20071;-76
2021/01/29 13:25:10;;;;;;;5.35;1.90;;;11.40;79.90;;;;;;5058558;28;20064;-76
2021/01/29 13:27:54;;;;;;;4.45;1.70;;;11.50;80.00;;;;;;5035589;28;20029;-77
2021/01/29 13:30:22;;;;;;;4.32;1.95;;;11.50;80.00;;;;;;5036165;28;20050;-78
2021/01/29 13:32:48;;;;;;;4.53;1.90;;;11.50;79.90;;;;;;5057428;28;20021;-78
2021/01/29 13:35:23;;;;;;;4.95;1.70;;;11.50;79.90;;;;;;5032862;28;20029;-78
2021/01/29 13:37:49;;;;;;;4.95;1.80;;;11.50;79.90;;;;;;5038434;28;20028;-78
2021/01/29 13:40:26;;;;;;;4.53;1.85;;;11.50;79.90;;;;;;5053326;28;20059;-79
2021/01/29 13:42:54;;;;;;;5.60;1.95;;;11.60;79.90;;;;;;5043861;28;20513;-78
2021/01/29 13:45:31;;;;;;;5.72;2.10;;;11.60;79.90;;;;;;5065119;28;20039;-80
2021/01/29 13:48:15;;;;;;;2.72;1.80;;;11.50;79.80;;;;;;5052076;28;20028;-78
2021/01/29 13:50:46;;;;;;;4.55;1.70;;;11.60;79.80;;;;;;5069381;28;20037;-79
2021/01/29 13:53:30;;;;;;;4.30;2.15;;;11.60;79.80;;;;;;5042324;28;20024;-79
2021/01/29 13:56:14;;;;;;;5.53;1.75;;;11.60;79.90;;;;;;5071412;28;20040;-79
2021/01/29 13:58:49;;;;;;;4.22;1.70;;;11.60;79.80;;;;;;5055253;28;20048;-80
2021/01/29 14:01:47;;;;;;;3.85;1.70;;;11.60;79.80;;;;;;5037495;28;20044;-79
2021/01/29 14:04:22;;;;;;;5.88;2.05;;;11.60;79.90;;;;;;5044023;28;20029;-79
2021/01/29 14:06:48;;;;;;;6.55;2.28;;;11.60;79.80;;;;;;5049682;28;20024;-80
2021/01/29 14:09:15;;;;;;;3.88;1.75;;;11.60;79.80;;;;;;5029363;28;20020;-78
2021/01/29 14:11:55;;;;;;;2.65;1.55;;;11.60;79.90;;;;;;5035610;28;20037;-79
2021/01/29 14:14:59;;;;;;;6.72;2.05;;;11.60;79.90;;;;;;5060537;28;20021;-80
2021/01/29 14:17:37;;;;;;;4.90;1.90;;;11.60;80.00;;;;;;5025323;28;20039;-77
2021/01/29 14:20:44;;;;;;;3.88;1.70;;;11.60;79.80;;;;;;5054762;28;20024;-79
2021/01/29 14:23:20;;;;;;;;;;;11.70;80.00;;;;;;5002161;28;20032;-78